KCFJ

Crawfordsville Municipal Airport

Crawfordsville, Indiana, USA
METAR KCFJ 191515Z AUTO 00000KT 10SM CLR 25/21 A3000 RMK AO2 T02480213
Observed Flight Rules
Aug-19 @ 15:15 UTC (24 minutes ago) Visual Flight Rules
Visibility Clouds
10 miles
  • Clear skies
Temperatures Readings
Current 25°C / 77°F
Dewpoint 21°C / 70°F
Humidity 79%
Altimeter 30" Hg
Pressure 1016 hPa
Elevation 244
METAR KCFJ 191515Z AUTO 00000KT 10SM CLR 25/21 A3000 RMK AO2 T02480213
Observed Flight Rules
Aug-19 @ 15:15 UTC
(24 minutes ago)
VFR
Clouds
  • Clear skies
Temperature Dewpoint
25°C / 77°F 21°C / 70°F
Humidity Altimeter Pressure
79% 30" Hg 1016 hPa